HEPS

Port Said Airport

Port Said, Egypt
METAR HEPS 191400Z 30015KT 9999 SCT025 SCT030 15/09 Q1017 NOSIG
Observed Flight Rules
Jan-19 @ 14:00 UTC (2 hours ago) Visual Flight Rules
Wind Visibility Clouds
300° at 15 knots 10,000+ meters
  • Scattered at 2,500' AGL
  • Scattered at 3,000' AGL
Temperatures Readings
Current 15°C / 59°F
Dewpoint 9°C / 48°F
Humidity 68%
Altimeter 30.03" Hg
Pressure 1017 hPa
Elevation 6
METAR HEPS 191400Z 30015KT 9999 SCT025 SCT030 15/09 Q1017 NOSIG
Observed Flight Rules
Jan-19 @ 14:00 UTC
(2 hours ago)
VFR
Wind Visibility
300° at 15 knots 10,000+ meters
Clouds
  • Scattered at 2,500' AGL
  • Scattered at 3,000' AGL
Temperature Dewpoint
15°C / 59°F 9°C / 48°F
Humidity Altimeter Pressure
68% 30.03" Hg 1017 hPa